Aeroporto :
LOGIN :

Iscrizione | Disclaimer

   EN    FR    IT 

 










Sommario :    VFR   VFR Marginale   IFR   IFR Intensivo   IFR Molto Intensivo
Visibilità : 
Base nubi : 
>= 8 km
>= 3000ft
5 / 8 km
1000 / 3000 ft
1500m / 5 km
500 / 1000 ft
800 / 1500m
200 / 500 ft
< 800m
< 200 ft
Simboli :   Temporali  Nebbia  Neve Forte  Precipitazioni Forti  Vento > 20 kt
SIGMETs :   Varie  Temporali  Ghiacco  Turbolenza  Onda orograficha  Ceneri Vulcaniche







- Altitudine del aeroporto : 410 ft
- Codice IATA : AVB


LIPA - Aviano AB Pordenone

ULTIMO METAR :
  • 240655Z 13004KT 1500 RA BR SCT010 BKN020 14/12 Q1013 RMK OVC VIS MIN 1500 WIND THR05 14005KT WIND THR23 14004KT A2993 AMB

METARs OBSOLETI :
  • 240555Z 11004KT 1800 RA BR SCT010 BKN020 14/12 Q1012 RMK OVC VIS MIN 1800 WIND THR05 11004KT WIND THR23 10004KT A2990 YLO
  • 240455Z 08003KT 1800 -RA BR SCT010 BKN020 13/11 Q1012 RMK OVC VIS MIN 1800 WIND THR05 09005KT WIND THR23 09004KT A2989 YLO

TAF TAF LIPA
Valido dal 24 a 06 ore il 24 a 15 ore UTC


240500Z 2406/2415 VRB05KT 6000 SCT010 BKN025
TEMPO 2406/2415 2500 RA
Nessun NOTAM noto per questo aeroporto.
1 SIGMET conosciuto per la FIR Milano (LIMM) :
 
Temporali affogati
LIMM SIGMET 1 VALID 240534/240834 LIIP
LIMM MILANO FIR EMBD TS FCST WI N4607 E00839 - N4548 E00901 - N4617 E00918 - N4552 E01054 - N4501 E01040 - N4422 E00912 - N4421 E00809 - N4607 E00839 TOP FL300 STNR NC=



MetMap, La meteo Aeronautica in un colpo d'occhio ! - Copyright ORBIFLY Dicembre 2007 - Disclaimer

ORBIFLY MET'MAP TEAM :

Programmazione e sviluppo : Alexandra Zaïnal
Concezione e sviluppo : Baudouin d'Aumeries
Co-Programmazione e sviluppo : Marc-Olivier Méhu
Supporto tecnico e logistico : Manuel Goepfert
Aiuto per la traduzione : Arnaldo La Scala

Contatto : metmap@orbifly.com




FONTI E CREDITI :

   NOAA